Time;durP1;ratioP1;P1;durP2;ratioP2;P2;SDS_P1;SDS_P2;PMS_P1;PMS_P2;Temp;Humidity;BMP_temperature;BMP_pressure;BME280_temperature;BME280_humidity;BME280_pressure;Samples;Min_cycle;Max_cycle;Signal;HPM_P1;HPM_P2
2023/03/19 00:01:25;;;;;;;;;;;;;;;22.17;25.33;98329.63;4974377;28;967;-76
2023/03/19 00:03:50;;;;;;;;;;;;;;;22.20;24.88;98320.25;5000348;28;1074;-76
2023/03/19 00:06:16;;;;;;;;;;;;;;;22.00;25.40;98330.84;4982805;28;1320;-75
2023/03/19 00:08:41;;;;;;;;;;;;;;;21.74;25.90;98312.81;5000711;28;940;-75
2023/03/19 00:11:08;;;;;;;;;;;;;;;21.60;25.76;98325.22;5017929;28;988;-74
2023/03/19 00:13:33;;;;;;;;;;;;;;;22.39;25.01;98317.81;4984285;28;1115;-76
2023/03/19 00:15:59;;;;;;;;;;;;;;;22.29;24.86;98314.78;4967649;28;1339;-76
2023/03/19 00:18:25;;;;;;;;;;;;;;;22.35;24.73;98318.69;5017650;28;869;-75
2023/03/19 00:20:51;;;;;;;;;;;;;;;21.91;25.72;98317.25;4983640;28;1911;-75
2023/03/19 00:23:16;;;;;;;;;;;;;;;21.89;25.67;98324.63;5017490;28;988;-76
2023/03/19 00:25:42;;;;;;;;;;;;;;;21.69;26.02;98322.63;4983348;28;1291;-75
2023/03/19 00:28:08;;;;;;;;;;;;;;;22.02;25.21;98317.00;4983721;28;1020;-76
2023/03/19 00:30:33;;;;;;;;;;;;;;;22.22;25.10;98314.94;4979236;28;1212;-75
2023/03/19 00:32:59;;;;;;;;;;;;;;;22.07;25.33;98320.16;4979077;28;1243;-75
2023/03/19 00:35:24;;;;;;;;;;;;;;;21.78;25.83;98313.53;4979420;28;973;-75
2023/03/19 00:37:50;;;;;;;;;;;;;;;21.56;25.92;98318.88;4995647;28;989;-76
2023/03/19 00:40:15;;;;;;;;;;;;;;;22.00;25.33;98314.63;4994413;28;1915;-75
2023/03/19 00:42:43;;;;;;;;;;;;;;;22.30;24.87;98322.03;4963105;28;1277;-75
2023/03/19 00:45:09;;;;;;;;;;;;;;;22.20;25.07;98334.44;4962907;28;1086;-76
2023/03/19 00:47:35;;;;;;;;;;;;;;;22.32;24.72;98325.22;4962555;28;1715;-75
2023/03/19 00:50:00;;;;;;;;;;;;;;;22.00;25.41;98325.16;4978868;28;997;-76
2023/03/19 00:52:26;;;;;;;;;;;;;;;21.74;25.83;98336.25;4979159;28;900;-76
2023/03/19 00:54:51;;;;;;;;;;;;;;;21.67;25.96;98335.63;4994820;28;1247;-75
2023/03/19 00:57:17;;;;;;;;;;;;;;;22.29;25.31;98337.47;4978949;28;1229;-75
2023/03/19 00:59:43;;;;;;;;;;;;;;;22.28;25.02;98340.75;4978616;28;1888;-76
2023/03/19 01:02:08;;;;;;;;;;;;;;;21.78;25.42;98322.81;4993265;28;1129;-76
2023/03/19 01:04:35;;;;;;;;;;;;;;;21.70;25.80;98326.25;4998059;28;1669;-76
2023/03/19 01:07:00;;;;;;;;;;;;;;;21.68;25.86;98326.69;4978439;28;1137;-76
2023/03/19 01:09:27;;;;;;;;;;;;;;;21.86;25.87;98314.94;4993501;28;1358;-76
2023/03/19 01:11:52;;;;;;;;;;;;;;;22.16;25.13;98322.38;4937914;29;1345;-76
2023/03/19 01:14:18;;;;;;;;;;;;;;;22.26;24.96;98321.34;4921073;29;1081;-76
2023/03/19 01:16:43;;;;;;;;;;;;;;;21.96;25.25;98318.78;4936751;29;1118;-76
2023/03/19 01:19:09;;;;;;;;;;;;;;;21.80;25.51;98317.50;4936391;29;1989;-76
2023/03/19 01:21:35;;;;;;;;;;;;;;;21.87;25.61;98315.78;4936728;29;1143;-76
2023/03/19 01:24:02;;;;;;;;;;;;;;;21.79;25.74;98307.41;4936256;29;1470;-76
2023/03/19 01:26:28;;;;;;;;;;;;;;;22.38;24.77;98316.97;4939230;29;1381;-76
2023/03/19 01:28:59;;;;;;;;;;;;;;;22.30;24.94;98315.59;4940316;29;1154;-75
2023/03/19 01:31:26;;;;;;;;;;;;;;;21.99;25.24;98312.25;4952645;29;1187;-76
2023/03/19 01:34:20;;;;;;;;;;;;;;;21.95;25.62;98317.19;4936529;29;1079;-75
2023/03/19 01:36:53;;;;;;;;;;;;;;;21.88;25.49;98317.38;4936576;29;1132;-76
2023/03/19 01:39:26;;;;;;;;;;;;;;;22.02;25.41;98317.84;4935949;29;1907;-76
2023/03/19 01:41:53;;;;;;;;;;;;;;;22.24;25.28;98323.81;4922404;29;1380;-75
2023/03/19 01:44:43;;;;;;;;;;;;;;;22.10;25.05;98324.13;4965065;28;1099;-75
2023/03/19 01:47:37;;;;;;;;;;;;;;;21.89;25.40;98313.28;4938928;29;1452;-75
2023/03/19 01:50:23;;;;;;;;;;;;;;;21.77;25.79;98312.72;4940817;29;1000;-76
2023/03/19 01:52:55;;;;;;;;;;;;;;;22.26;25.38;98318.50;4924210;29;1198;-75
2023/03/19 01:55:33;;;;;;;;;;;;;;;22.23;25.07;98322.22;4939414;29;1140;-76
2023/03/19 01:58:10;;;;;;;;;;;;;;;22.32;24.70;98313.88;4940766;29;1271;-76
2023/03/19 02:00:54;;;;;;;;;;;;;;;21.76;25.56;98316.81;4941451;29;1906;-76
2023/03/19 02:03:21;;;;;;;;;;;;;;;21.68;25.80;98321.03;4939645;29;1047;-76
2023/03/19 02:05:50;;;;;;;;;;;;;;;21.48;26.09;98329.53;4924267;29;1151;-75
2023/03/19 02:08:15;;;;;;;;;;;;;;;22.07;25.44;98330.66;4939390;29;1236;-76
2023/03/19 02:10:42;;;;;;;;;;;;;;;22.17;25.52;98334.50;4923373;29;1461;-76
2023/03/19 02:13:08;;;;;;;;;;;;;;;22.09;25.13;98326.16;4923160;28;1322;-76
2023/03/19 02:15:33;;;;;;;;;;;;;;;21.79;25.67;98329.28;4939100;29;1529;-76
2023/03/19 02:17:59;;;;;;;;;;;;;;;21.72;25.99;98330.25;4939066;29;1130;-75
2023/03/19 02:20:26;;;;;;;;;;;;;;;21.45;26.14;98329.59;4923625;29;1915;-75
2023/03/19 02:22:59;;;;;;;;;;;;;;;22.30;25.20;98333.38;4938944;29;1423;-76
2023/03/19 02:25:34;;;;;;;;;;;;;;;22.26;24.93;98343.22;4959920;28;1238;-76
2023/03/19 02:28:00;;;;;;;;;;;;;;;21.90;25.32;98337.53;4978979;28;1430;-75
2023/03/19 02:30:27;;;;;;;;;;;;;;;21.85;25.47;98331.16;4998310;28;984;-75
2023/03/19 02:32:53;;;;;;;;;;;;;;;21.61;25.96;98343.84;4966132;28;1306;-76
2023/03/19 02:35:19;;;;;;;;;;;;;;;21.89;25.50;98336.75;5015535;28;923;-76
2023/03/19 02:37:45;;;;;;;;;;;;;;;21.96;25.79;98335.78;4948865;28;1153;-75
2023/03/19 02:40:16;;;;;;;;;;;;;;;22.07;25.33;98342.81;4998189;28;1903;-75
2023/03/19 02:42:41;;;;;;;;;;;;;;;22.06;25.49;98337.56;4981432;28;1443;-76
2023/03/19 02:45:07;;;;;;;;;;;;;;;21.94;25.46;98332.59;5015913;28;960;-75
2023/03/19 02:47:33;;;;;;;;;;;;;;;21.66;25.92;98340.50;4998129;28;1251;-75
2023/03/19 02:49:58;;;;;;;;;;;;;;;21.88;25.82;98340.81;4993384;28;1002;-75
2023/03/19 02:52:24;;;;;;;;;;;;;;;22.42;25.23;98350.94;4961362;28;1432;-76
2023/03/19 02:54:50;;;;;;;;;;;;;;;22.31;25.11;98349.16;4995015;28;958;-75
2023/03/19 02:57:16;;;;;;;;;;;;;;;22.24;25.25;98346.50;4965140;28;1129;-76
2023/03/19 02:59:42;;;;;;;;;;;;;;;21.82;25.51;98349.03;4964465;28;1906;-75
2023/03/19 03:02:08;;;;;;;;;;;;;;;21.74;25.86;98347.59;4964981;28;1150;-75
2023/03/19 03:04:35;;;;;;;;;;;;;;;21.83;25.74;98350.63;4948883;28;1203;-76
2023/03/19 03:07:02;;;;;;;;;;;;;;;22.21;25.27;98349.41;4964995;28;1109;-75
2023/03/19 03:09:27;;;;;;;;;;;;;;;22.31;25.12;98351.97;4964993;28;1148;-76
2023/03/19 03:11:53;;;;;;;;;;;;;;;22.13;25.17;98362.97;4996865;28;1150;-75
2023/03/19 03:14:18;;;;;;;;;;;;;;;21.87;25.44;98359.06;4960712;28;1430;-75
2023/03/19 03:16:44;;;;;;;;;;;;;;;21.77;25.54;98363.72;4945565;28;1062;-75
2023/03/19 03:19:10;;;;;;;;;;;;;;;22.08;25.55;98363.44;4961067;28;1981;-76
2023/03/19 03:21:35;;;;;;;;;;;;;;;22.34;25.27;98362.44;5002416;28;1445;-76
2023/03/19 03:24:02;;;;;;;;;;;;;;;22.45;24.95;98361.41;4984369;28;1330;-76
2023/03/19 03:26:27;;;;;;;;;;;;;;;22.12;25.29;98357.72;5002046;28;876;-76
2023/03/19 03:28:53;;;;;;;;;;;;;;;21.90;25.86;98363.03;4985634;28;883;-75
2023/03/19 03:31:18;;;;;;;;;;;;;;;21.74;25.75;98356.09;5000475;28;1417;-76
2023/03/19 03:33:44;;;;;;;;;;;;;;;21.80;25.82;98371.31;5000627;28;1053;-75
2023/03/19 03:36:11;;;;;;;;;;;;;;;22.11;25.37;98365.41;5001098;28;855;-75
2023/03/19 03:38:36;;;;;;;;;;;;;;;22.14;25.40;98370.22;5000910;28;873;-75
2023/03/19 03:41:02;;;;;;;;;;;;;;;21.92;25.60;98380.41;5001157;28;1926;-75
2023/03/19 03:43:27;;;;;;;;;;;;;;;21.84;25.61;98374.88;4984530;28;1217;-76
2023/03/19 03:45:54;;;;;;;;;;;;;;;21.77;25.84;98375.06;5000828;28;1215;-75
2023/03/19 03:48:20;;;;;;;;;;;;;;;21.94;25.90;98389.25;4924977;28;1502;-76
2023/03/19 03:50:46;;;;;;;;;;;;;;;22.12;25.33;98389.69;4925920;28;1089;-76
2023/03/19 03:53:15;;;;;;;;;;;;;;;22.38;25.13;98387.06;4926264;29;1185;-75
2023/03/19 03:55:41;;;;;;;;;;;;;;;21.81;25.82;98381.44;4941486;29;1117;-75
2023/03/19 03:58:07;;;;;;;;;;;;;;;21.71;25.87;98388.13;4925062;29;1428;-76
2023/03/19 04:00:32;;;;;;;;;;;;;;;21.74;25.73;98397.78;4941573;28;1906;-75
2023/03/19 04:02:58;;;;;;;;;;;;;;;22.03;25.48;98397.97;4925270;29;1060;-75
2023/03/19 04:05:24;;;;;;;;;;;;;;;22.42;24.88;98396.28;4940265;28;1384;-76
2023/03/19 04:07:50;;;;;;;;;;;;;;;22.31;25.41;98396.53;4909902;28;1197;-76
2023/03/19 04:10:16;;;;;;;;;;;;;;;21.77;25.74;98400.53;4925648;28;1612;-76
2023/03/19 04:12:41;;;;;;;;;;;;;;;21.78;25.68;98390.81;4957508;28;916;-76
2023/03/19 04:15:08;;;;;;;;;;;;;;;21.85;26.02;98392.69;4925519;28;1242;-75
2023/03/19 04:17:36;;;;;;;;;;;;;;;22.12;25.36;98392.50;4956600;28;1505;-75
2023/03/19 04:20:03;;;;;;;;;;;;;;;22.20;25.25;98391.13;4971894;28;1902;-75
2023/03/19 04:22:29;;;;;;;;;;;;;;;21.87;25.56;98383.75;5000493;28;1068;-75
2023/03/19 04:24:55;;;;;;;;;;;;;;;21.76;25.78;98393.28;5000412;28;925;-76
2023/03/19 04:27:21;;;;;;;;;;;;;;;21.88;25.55;98396.69;4983607;28;1358;-75
2023/03/19 04:29:48;;;;;;;;;;;;;;;22.06;25.63;98391.41;4999956;28;1224;-75
2023/03/19 04:32:15;;;;;;;;;;;;;;;22.16;25.19;98395.28;5000212;28;1235;-76
2023/03/19 04:34:41;;;;;;;;;;;;;;;22.41;25.00;98394.72;4984027;28;901;-75
2023/03/19 04:37:09;;;;;;;;;;;;;;;22.02;25.66;98399.19;5017367;28;893;-75
2023/03/19 04:39:41;;;;;;;;;;;;;;;21.74;26.07;98404.22;4984967;28;1961;-75
2023/03/19 04:42:07;;;;;;;;;;;;;;;21.97;25.51;98411.06;4983073;28;1600;-76
2023/03/19 04:44:36;;;;;;;;;;;;;;;22.00;25.49;98410.97;4998883;28;1359;-76
2023/03/19 04:47:02;;;;;;;;;;;;;;;22.14;25.29;98409.91;4999850;28;1107;-76
2023/03/19 04:49:35;;;;;;;;;;;;;;;22.16;25.39;98406.63;4999605;28;964;-76
2023/03/19 04:52:00;;;;;;;;;;;;;;;21.75;25.89;98414.31;4972439;28;1159;-75
2023/03/19 04:54:27;;;;;;;;;;;;;;;21.75;25.89;98411.50;4956501;29;1208;-76
2023/03/19 04:56:52;;;;;;;;;;;;;;;21.77;25.92;98414.69;4940603;29;1111;-76
2023/03/19 04:59:21;;;;;;;;;;;;;;;21.95;25.55;98413.50;4954700;29;1906;-75
2023/03/19 05:01:47;;;;;;;;;;;;;;;22.15;25.35;98417.16;4940340;29;1169;-75
2023/03/19 05:04:17;;;;;;;;;;;;;;;22.08;25.41;98411.63;4940224;29;1216;-76
2023/03/19 05:06:43;;;;;;;;;;;;;;;21.92;25.49;98414.41;4940581;29;1392;-75
2023/03/19 05:09:09;;;;;;;;;;;;;;;21.91;25.70;98412.78;4939971;29;1080;-76
2023/03/19 05:11:34;;;;;;;;;;;;;;;21.61;26.33;98406.16;4939942;29;1324;-76
2023/03/19 05:14:08;;;;;;;;;;;;;;;21.88;25.94;98413.69;4940174;29;1232;-76
2023/03/19 05:16:51;;;;;;;;;;;;;;;21.99;25.82;98414.25;4939505;29;1269;-76
2023/03/19 05:19:17;;;;;;;;;;;;;;;22.06;25.39;98419.75;4940183;29;1980;-76
2023/03/19 05:21:43;;;;;;;;;;;;;;;21.65;26.28;98423.84;4940012;29;1213;-76
2023/03/19 05:24:09;;;;;;;;;;;;;;;21.82;25.68;98422.69;4939083;29;1595;-76
2023/03/19 05:26:36;;;;;;;;;;;;;;;21.68;26.04;98422.19;4939877;29;1039;-76
2023/03/19 05:29:28;;;;;;;;;;;;;;;21.89;25.59;98430.22;4957212;28;967;-75
2023/03/19 05:32:10;;;;;;;;;;;;;;;22.00;25.53;98427.16;4918020;28;1452;-76
2023/03/19 05:34:38;;;;;;;;;;;;;;;21.93;25.60;98422.47;4958459;28;1275;-76
2023/03/19 05:37:04;;;;;;;;;;;;;;;21.91;25.48;98424.91;4958901;28;1134;-76
2023/03/19 05:39:30;;;;;;;;;;;;;;;21.71;26.03;98424.94;4958574;28;1906;-76
2023/03/19 05:42:01;;;;;;;;;;;;;;;21.83;25.72;98412.94;4928379;28;1073;-76
2023/03/19 05:44:28;;;;;;;;;;;;;;;22.00;25.54;98405.31;4936260;29;1124;-75
2023/03/19 05:47:12;;;;;;;;;;;;;;;22.20;25.15;98404.50;4923207;29;980;-76
2023/03/19 05:49:44;;;;;;;;;;;;;;;22.29;25.24;98411.16;4920418;29;1230;-76
2023/03/19 05:52:10;;;;;;;;;;;;;;;21.91;25.90;98413.59;4904903;29;1223;-76
2023/03/19 05:54:37;;;;;;;;;;;;;;;21.83;25.67;98424.28;4947021;28;1396;-76
2023/03/19 05:57:25;;;;;;;;;;;;;;;21.75;26.10;98434.16;4959413;28;1038;-76
2023/03/19 05:59:56;;;;;;;;;;;;;;;22.28;25.33;98431.47;4958489;28;1987;-75
2023/03/19 06:02:31;;;;;;;;;;;;;;;22.03;25.28;98429.16;4959751;28;1055;-76
2023/03/19 06:05:12;;;;;;;;;;;;;;;22.07;25.28;98415.66;4958772;28;1213;-76
2023/03/19 06:07:37;;;;;;;;;;;;;;;21.68;25.75;98411.66;4958539;28;1297;-76
2023/03/19 06:10:08;;;;;;;;;;;;;;;21.71;25.94;98399.47;4958265;28;1410;-77
2023/03/19 06:12:33;;;;;;;;;;;;;;;21.68;26.21;98405.97;4942535;28;1179;-76
2023/03/19 06:15:31;;;;;;;;;;;;;;;22.08;25.57;98417.28;4962278;28;1364;-76
2023/03/19 06:18:12;;;;;;;;;;;;;;;22.22;25.33;98422.66;4958452;28;1214;-76
2023/03/19 06:20:38;;;;;;;;;;;;;;;22.26;25.21;98428.25;4926384;28;1919;-75
2023/03/19 06:23:03;;;;;;;;;;;;;;;21.53;26.30;98435.81;4997190;28;1132;-75
2023/03/19 06:25:29;;;;;;;;;;;;;;;21.64;26.09;98427.91;4998479;28;940;-75
2023/03/19 06:27:55;;;;;;;;;;;;;;;21.64;25.97;98427.13;5015701;28;929;-76
2023/03/19 06:30:27;;;;;;;;;;;;;;;21.94;25.83;98429.72;4986580;28;1278;-77
2023/03/19 06:32:55;;;;;;;;;;;;;;;22.14;25.36;98438.22;4986220;28;1173;-76
2023/03/19 06:35:21;;;;;;;;;;;;;;;22.27;25.06;98438.34;4986003;28;1252;-76
2023/03/19 06:37:48;;;;;;;;;;;;;;;21.90;25.46;98439.53;5002247;28;1088;-76
2023/03/19 06:40:14;;;;;;;;;;;;;;;21.74;25.75;98446.72;5019676;28;1977;-76
2023/03/19 06:42:39;;;;;;;;;;;;;;;22.04;25.68;98450.56;5002145;28;941;-76
2023/03/19 06:45:06;;;;;;;;;;;;;;;22.34;25.19;98452.38;4985847;28;1003;-77
2023/03/19 06:47:32;;;;;;;;;;;;;;;22.27;25.02;98453.31;4961798;28;1138;-76
2023/03/19 06:49:58;;;;;;;;;;;;;;;21.98;25.24;98452.31;4945785;28;1223;-76
2023/03/19 06:52:24;;;;;;;;;;;;;;;21.68;25.81;98456.16;4961885;28;1028;-76
2023/03/19 06:54:49;;;;;;;;;;;;;;;21.71;25.96;98458.94;4978087;28;958;-76
2023/03/19 06:57:15;;;;;;;;;;;;;;;21.92;25.84;98459.75;4977640;28;995;-76
2023/03/19 06:59:41;;;;;;;;;;;;;;;22.04;25.46;98467.56;4977578;28;1902;-75
2023/03/19 07:02:08;;;;;;;;;;;;;;;22.38;24.97;98474.97;4945640;28;969;-76
2023/03/19 07:04:34;;;;;;;;;;;;;;;22.00;25.42;98472.50;4958249;28;1218;-76
2023/03/19 07:07:01;;;;;;;;;;;;;;;21.66;26.07;98482.09;4942434;28;1028;-76
2023/03/19 07:09:26;;;;;;;;;;;;;;;21.55;26.10;98484.31;4904497;29;963;-76
2023/03/19 07:11:52;;;;;;;;;;;;;;;22.09;25.35;98475.56;4920308;29;852;-76
2023/03/19 07:14:17;;;;;;;;;;;;;;;22.10;25.18;98477.16;4919851;29;1112;-76
2023/03/19 07:16:43;;;;;;;;;;;;;;;21.90;25.61;98479.19;4920001;29;1118;-76
2023/03/19 07:19:08;;;;;;;;;;;;;;;21.76;25.66;98486.75;4934269;29;1919;-76
2023/03/19 07:21:34;;;;;;;;;;;;;;;21.70;26.00;98477.13;4939145;29;1030;-76
2023/03/19 07:24:00;;;;;;;;;;;;;;;21.98;25.65;98470.13;4923070;29;1039;-76
2023/03/19 07:26:26;;;;;;;;;;;;;;;21.93;25.63;98469.84;4923430;29;996;-76
2023/03/19 07:28:52;;;;;;;;;;;;;;;22.03;25.47;98480.16;4923139;29;1014;-76
2023/03/19 07:31:17;;;;;;;;;;;;;;;21.87;25.72;98480.88;4922913;29;1404;-76
2023/03/19 07:33:43;;;;;;;;;;;;;;;21.77;25.64;98494.00;4923262;29;965;-76
2023/03/19 07:36:08;;;;;;;;;;;;;;;21.71;25.98;98498.59;4937141;29;1321;-76
2023/03/19 07:38:34;;;;;;;;;;;;;;;22.10;25.46;98494.16;4958085;29;1017;-76
2023/03/19 07:40:59;;;;;;;;;;;;;;;22.08;25.67;98500.28;4941052;29;1895;-76
2023/03/19 07:43:25;;;;;;;;;;;;;;;22.20;25.28;98487.50;4941913;29;994;-76
2023/03/19 07:45:50;;;;;;;;;;;;;;;22.21;25.21;98489.09;4946473;28;992;-76
2023/03/19 07:48:16;;;;;;;;;;;;;;;21.96;25.49;98489.56;5001119;28;914;-76
2023/03/19 07:50:42;;;;;;;;;;;;;;;21.85;25.49;98498.28;5000730;28;1348;-76
2023/03/19 07:53:07;;;;;;;;;;;;;;;21.78;25.58;98494.81;4984591;28;893;-76
2023/03/19 07:55:32;;;;;;;;;;;;;;;21.76;25.70;98495.25;4984269;28;1005;-76
2023/03/19 07:57:58;;;;;;;;;;;;;;;22.13;25.25;98493.31;4984426;28;1129;-76
2023/03/19 08:00:24;;;;;;;;;;;;;;;22.16;25.15;98492.44;4976680;28;1992;-76
2023/03/19 08:02:49;;;;;;;;;;;;;;;21.89;25.61;98497.44;4944411;28;1138;-76
2023/03/19 08:05:15;;;;;;;;;;;;;;;21.64;25.99;98500.75;4960630;28;1243;-76
2023/03/19 08:07:41;;;;;;;;;;;;;;;21.55;26.16;98493.63;4976589;28;963;-76
2023/03/19 08:10:07;;;;;;;;;;;;;;;22.05;25.39;98497.50;4960457;28;1275;-76
2023/03/19 08:12:38;;;;;;;;;;;;;;;22.23;25.24;98500.00;4960342;28;921;-76
2023/03/19 08:15:04;;;;;;;;;;;;;;;22.36;24.90;98496.03;4976596;28;988;-76
2023/03/19 08:17:33;;;;;;;;;;;;;;;21.94;25.84;98491.25;4944275;28;1075;-76
2023/03/19 08:19:58;;;;;;;;;;;;;;;21.89;25.61;98497.44;4960279;28;1910;-75
2023/03/19 08:22:24;;;;;;;;;;;;;;;21.75;25.80;98495.66;4976743;28;951;-76
2023/03/19 08:24:49;;;;;;;;;;;;;;;21.99;25.50;98496.41;4960177;28;1031;-76
2023/03/19 08:27:15;;;;;;;;;;;;;;;22.14;25.26;98488.47;4960443;28;1014;-76
2023/03/19 08:29:40;;;;;;;;;;;;;;;22.26;25.03;98502.75;4960143;28;1090;-76
2023/03/19 08:32:06;;;;;;;;;;;;;;;21.85;25.82;98501.13;4992298;28;923;-75
2023/03/19 08:34:32;;;;;;;;;;;;;;;21.43;26.29;98496.28;4999821;28;1176;-76
2023/03/19 08:36:57;;;;;;;;;;;;;;;21.56;26.23;98488.75;5000272;28;893;-76
2023/03/19 08:39:23;;;;;;;;;;;;;;;22.05;25.45;98492.63;4999875;28;1906;-75
2023/03/19 08:41:48;;;;;;;;;;;;;;;22.23;25.15;98492.31;5017375;28;955;-76
2023/03/19 08:44:14;;;;;;;;;;;;;;;22.27;25.29;98493.00;5017171;28;960;-76
2023/03/19 08:46:41;;;;;;;;;;;;;;;21.79;25.90;98497.19;4975532;28;1014;-76
2023/03/19 08:49:06;;;;;;;;;;;;;;;21.40;26.46;98502.78;4959909;28;1651;-76
2023/03/19 08:51:32;;;;;;;;;;;;;;;21.86;25.75;98496.25;4958910;28;959;-76
2023/03/19 08:53:57;;;;;;;;;;;;;;;22.05;25.58;98491.84;4959566;28;1068;-76
2023/03/19 08:56:23;;;;;;;;;;;;;;;22.27;25.08;98495.84;4975618;28;951;-76
2023/03/19 08:58:48;;;;;;;;;;;;;;;21.90;25.54;98488.50;4975964;28;1029;-76
2023/03/19 09:01:14;;;;;;;;;;;;;;;21.98;25.50;98480.66;4975714;28;1910;-76
2023/03/19 09:03:40;;;;;;;;;;;;;;;21.44;26.39;98487.34;4943449;28;1086;-76
2023/03/19 09:06:06;;;;;;;;;;;;;;;22.21;25.34;98483.41;4943441;28;1092;-76
2023/03/19 09:08:32;;;;;;;;;;;;;;;22.26;25.13;98488.56;4959272;28;973;-76
2023/03/19 09:10:57;;;;;;;;;;;;;;;22.34;24.99;98484.34;4943549;28;1069;-75
2023/03/19 09:13:23;;;;;;;;;;;;;;;21.90;25.48;98488.50;4959005;28;1237;-75
2023/03/19 09:15:49;;;;;;;;;;;;;;;21.83;25.67;98492.28;4943435;28;1283;-76
2023/03/19 09:18:15;;;;;;;;;;;;;;;21.61;26.16;98496.75;4989384;28;1045;-76
2023/03/19 09:20:40;;;;;;;;;;;;;;;22.02;25.63;98482.19;5016678;28;1971;-76
2023/03/19 09:23:06;;;;;;;;;;;;;;;22.11;25.25;98490.13;4999249;28;898;-76
2023/03/19 09:25:32;;;;;;;;;;;;;;;21.94;25.42;98485.59;5016289;28;1068;-76
2023/03/19 09:27:57;;;;;;;;;;;;;;;21.77;25.76;98490.38;4966813;28;1050;-75
2023/03/19 09:30:23;;;;;;;;;;;;;;;21.70;26.19;98488.47;5016653;28;954;-76
2023/03/19 09:32:48;;;;;;;;;;;;;;;22.16;25.46;98489.59;4958662;28;1121;-76
2023/03/19 09:35:14;;;;;;;;;;;;;;;22.25;25.54;98486.97;4943085;28;1295;-76
2023/03/19 09:37:40;;;;;;;;;;;;;;;22.30;25.37;98480.81;4927187;28;1148;-76
2023/03/19 09:40:06;;;;;;;;;;;;;;;21.89;25.67;98483.25;4943032;28;1964;-76
2023/03/19 09:42:50;;;;;;;;;;;;;;;21.66;25.85;98493.44;4958885;28;1074;-76
2023/03/19 09:45:16;;;;;;;;;;;;;;;21.69;26.08;98486.88;4958739;28;1251;-75
2023/03/19 09:47:42;;;;;;;;;;;;;;;21.50;26.51;98467.81;4959179;28;1026;-76
2023/03/19 09:50:17;;;;;;;;;;;;;;;22.05;25.78;98472.00;4926931;28;1130;-76
2023/03/19 09:52:44;;;;;;;;;;;;;;;22.20;25.37;98470.50;4942788;28;1027;-76
2023/03/19 09:55:12;;;;;;;;;;;;;;;21.75;25.64;98473.81;4942574;28;900;-76
2023/03/19 09:57:38;;;;;;;;;;;;;;;21.82;25.75;98470.84;4958418;28;1217;-76
2023/03/19 10:00:32;;;;;;;;;;;;;;;21.64;26.17;98478.88;4942791;28;1914;-75
2023/03/19 10:03:07;;;;;;;;;;;;;;;22.08;25.57;98457.75;4916150;29;1067;-75
2023/03/19 10:05:45;;;;;;;;;;;;;;;22.15;25.49;98461.72;4916817;29;1016;-75
2023/03/19 10:08:23;;;;;;;;;;;;;;;22.14;25.49;98458.06;4917187;29;1113;-75
2023/03/19 10:11:14;;;;;;;;;;;;;;;21.61;26.13;98454.28;4915027;29;1177;-76
2023/03/19 10:13:58;;;;;;;;;;;;;;;21.71;25.92;98450.44;4904540;29;1036;-76
2023/03/19 10:16:26;;;;;;;;;;;;;;;21.94;25.72;98445.94;4935266;29;1939;-75
2023/03/19 10:18:53;;;;;;;;;;;;;;;22.11;25.37;98444.78;4917126;29;1039;-77
2023/03/19 10:21:24;;;;;;;;;;;;;;;21.97;25.90;98440.19;4901324;29;1922;-75
2023/03/19 10:24:11;;;;;;;;;;;;;;;21.71;26.21;98449.63;4901457;29;1128;-75
2023/03/19 10:26:36;;;;;;;;;;;;;;;21.54;26.09;98452.38;4885980;29;1066;-75
2023/03/19 10:29:05;;;;;;;;;;;;;;;21.79;26.12;98446.22;4901202;29;912;-76
2023/03/19 10:31:49;;;;;;;;;;;;;;;22.11;25.37;98456.09;4916875;29;999;-75
2023/03/19 10:34:14;;;;;;;;;;;;;;;22.07;25.56;98449.69;4916604;29;1025;-75
2023/03/19 10:36:40;;;;;;;;;;;;;;;22.02;25.41;98447.34;4916687;29;883;-75
2023/03/19 10:39:06;;;;;;;;;;;;;;;21.69;26.05;98452.09;4907502;28;1179;-76
2023/03/19 10:41:34;;;;;;;;;;;;;;;21.63;26.12;98454.63;4958112;28;1915;-74
2023/03/19 10:44:01;;;;;;;;;;;;;;;21.67;26.15;98455.38;4957986;28;1058;-75
2023/03/19 10:46:26;;;;;;;;;;;;;;;22.20;25.33;98442.16;4974089;28;919;-75
2023/03/19 10:48:52;;;;;;;;;;;;;;;22.17;25.53;98433.72;4975692;28;1076;-75
2023/03/19 10:51:21;;;;;;;;;;;;;;;22.36;25.05;98432.88;4962507;28;946;-74
2023/03/19 10:53:47;;;;;;;;;;;;;;;21.78;25.84;98438.97;4962478;28;1084;-75
2023/03/19 10:56:22;;;;;;;;;;;;;;;21.68;26.05;98433.50;4962634;28;969;-75
2023/03/19 10:58:58;;;;;;;;;;;;;;;21.59;26.46;98419.91;4978458;28;987;-75
2023/03/19 11:01:30;;;;;;;;;;;;;;;21.81;26.00;98415.44;4978557;28;1910;-75
2023/03/19 11:03:56;;;;;;;;;;;;;;;22.05;25.70;98418.16;4962560;28;1069;-75
2023/03/19 11:06:25;;;;;;;;;;;;;;;22.24;25.27;98425.88;4962666;28;1117;-75
2023/03/19 11:08:57;;;;;;;;;;;;;;;21.87;26.06;98415.72;4978488;28;1221;-75
2023/03/19 11:11:23;;;;;;;;;;;;;;;21.75;25.99;98410.69;4978225;28;1144;-76
2023/03/19 11:13:49;;;;;;;;;;;;;;;21.67;26.07;98410.06;4922927;29;1248;-75
2023/03/19 11:16:14;;;;;;;;;;;;;;;21.88;26.09;98413.69;4956709;28;953;-75
2023/03/19 11:18:40;;;;;;;;;;;;;;;22.28;25.55;98403.91;4942281;29;1259;-75
2023/03/19 11:21:26;;;;;;;;;;;;;;;22.23;25.28;98412.13;4958115;29;1914;-75
2023/03/19 11:23:52;;;;;;;;;;;;;;;22.00;25.64;98410.97;4903963;29;1166;-75
2023/03/19 11:26:18;;;;;;;;;;;;;;;21.80;25.91;98408.16;4904208;29;966;-75
2023/03/19 11:28:43;;;;;;;;;;;;;;;21.85;25.94;98392.69;4888266;29;989;-75
2023/03/19 11:31:18;;;;;;;;;;;;;;;22.04;25.80;98396.72;4919774;29;1025;-75
2023/03/19 11:34:02;;;;;;;;;;;;;;;22.18;25.75;98402.13;4903992;29;1021;-75
2023/03/19 11:36:30;;;;;;;;;;;;;;;21.84;25.83;98397.53;4904072;29;1128;-75
2023/03/19 11:38:55;;;;;;;;;;;;;;;21.80;26.04;98396.03;4888430;29;1125;-74
2023/03/19 11:41:29;;;;;;;;;;;;;;;21.78;26.06;98387.19;4919404;29;1915;-75
2023/03/19 11:43:58;;;;;;;;;;;;;;;22.06;25.73;98392.22;4890873;29;1345;-74
2023/03/19 11:46:35;;;;;;;;;;;;;;;22.19;25.59;98388.75;4938437;29;915;-75
2023/03/19 11:49:06;;;;;;;;;;;;;;;22.03;25.77;98383.81;4938365;29;1044;-76
2023/03/19 11:51:35;;;;;;;;;;;;;;;21.76;26.08;98384.78;4938592;29;937;-74
2023/03/19 11:54:09;;;;;;;;;;;;;;;21.71;26.41;98382.47;4938258;29;1024;-75
2023/03/19 11:56:38;;;;;;;;;;;;;;;21.93;25.87;98382.81;4938495;29;1003;-75
2023/03/19 11:59:09;;;;;;;;;;;;;;;22.30;25.34;98378.75;4938182;29;1041;-75
2023/03/19 12:01:48;;;;;;;;;;;;;;;22.17;25.69;98369.31;4971550;28;1985;-75
2023/03/19 12:04:35;;;;;;;;;;;;;;;21.92;25.71;98369.09;4944672;28;1338;-75
2023/03/19 12:07:03;;;;;;;;;;;;;;;21.93;25.79;98376.34;4960381;28;1076;-75
2023/03/19 12:09:47;;;;;;;;;;;;;;;21.76;26.24;98367.78;4976498;28;1007;-75
2023/03/19 12:12:16;;;;;;;;;;;;;;;22.04;26.12;98376.91;4976500;28;1143;-75
2023/03/19 12:14:53;;;;;;;;;;;;;;;22.03;25.83;98358.31;4976439;28;1195;-75
2023/03/19 12:17:33;;;;;;;;;;;;;;;21.88;25.79;98371.19;4976506;28;1136;-75
2023/03/19 12:20:02;;;;;;;;;;;;;;;21.52;26.39;98372.72;4976291;28;1894;-75
2023/03/19 12:22:35;;;;;;;;;;;;;;;21.66;26.26;98371.66;4960298;28;1295;-75
2023/03/19 12:25:26;;;;;;;;;;;;;;;21.94;26.03;98366.59;4956893;29;1116;-75
2023/03/19 12:27:55;;;;;;;;;;;;;;;22.15;25.65;98374.63;4937394;29;1173;-75
2023/03/19 12:30:34;;;;;;;;;;;;;;;21.76;26.05;98369.81;4937666;29;1018;-75
2023/03/19 12:33:18;;;;;;;;;;;;;;;21.66;26.19;98362.31;4921721;29;1008;-75
2023/03/19 12:35:45;;;;;;;;;;;;;;;21.44;26.89;98361.97;4922117;29;1263;-74
2023/03/19 12:38:17;;;;;;;;;;;;;;;22.08;26.01;98366.28;4915571;29;1161;-76
2023/03/19 12:40:55;;;;;;;;;;;;;;;22.06;25.69;98352.53;4878516;29;1895;-75
2023/03/19 12:43:22;;;;;;;;;;;;;;;22.03;25.87;98358.31;4893455;29;1249;-74
2023/03/19 12:45:49;;;;;;;;;;;;;;;21.71;26.25;98359.81;4893858;29;1237;-75
2023/03/19 12:48:22;;;;;;;;;;;;;;;21.88;25.82;98352.16;4877655;29;889;-75
2023/03/19 12:50:49;;;;;;;;;;;;;;;21.67;26.17;98358.28;4859009;29;1252;-75
2023/03/19 12:53:21;;;;;;;;;;;;;;;21.67;26.20;98359.09;4859085;29;994;-74
2023/03/19 12:55:48;;;;;;;;;;;;;;;21.98;25.85;98350.31;4851670;29;951;-75
2023/03/19 12:58:33;;;;;;;;;;;;;;;22.21;25.53;98364.38;4840853;29;945;-75
2023/03/19 13:01:01;;;;;;;;;;;;;;;21.76;26.19;98356.47;4840540;29;1968;-75
2023/03/19 13:03:29;;;;;;;;;;;;;;;21.60;26.21;98359.22;4840421;29;1105;-75
2023/03/19 13:05:58;;;;;;;;;;;;;;;21.61;26.41;98360.84;4861986;29;1084;-75
2023/03/19 13:08:42;;;;;;;;;;;;;;;22.09;25.55;98359.38;4865438;29;1027;-75